createdAt,value
2022-09-12T00:00:46.072Z,99151.03
2022-09-12T00:03:53.468Z,99150.66
2022-09-12T00:06:56.690Z,99167.59
2022-09-12T00:10:00.034Z,99154.00
2022-09-12T00:13:03.266Z,99156.38
2022-09-12T00:16:07.885Z,99159.56
2022-09-12T00:19:13.549Z,99157.69
2022-09-12T00:22:16.849Z,99157.75
2022-09-12T00:25:20.201Z,99170.06
2022-09-12T00:28:23.487Z,99176.84
2022-09-12T00:31:28.054Z,99182.50
2022-09-12T00:34:32.901Z,99178.69
2022-09-12T00:37:36.497Z,99186.56
2022-09-12T00:40:40.101Z,99181.13
2022-09-12T00:43:45.224Z,99173.91
2022-09-12T00:46:52.030Z,99167.50
2022-09-12T00:50:02.741Z,99165.50
2022-09-12T00:53:09.365Z,99148.00
2022-09-12T00:56:14.797Z,99152.31
2022-09-12T00:59:21.308Z,99148.75
2022-09-12T01:02:25.131Z,99152.66
2022-09-12T01:05:32.651Z,99154.66
2022-09-12T01:08:38.413Z,99150.97
2022-09-12T01:11:42.302Z,99155.47
2022-09-12T01:14:45.632Z,99151.56
2022-09-12T01:18:01.671Z,99150.81
2022-09-12T01:21:15.884Z,99152.22
2022-09-12T01:24:53.189Z,99154.06
2022-09-12T01:28:22.748Z,99145.13
2022-09-12T01:31:33.901Z,99142.34
2022-09-12T01:34:44.784Z,99141.53
2022-09-12T01:37:58.777Z,99132.66
2022-09-12T01:41:12.464Z,99139.16
2022-09-12T01:44:25.444Z,99130.78
2022-09-12T01:47:38.332Z,99138.44
2022-09-12T01:50:47.924Z,99135.19
2022-09-12T01:53:55.840Z,99129.31
2022-09-12T01:57:05.371Z,99125.47
2022-09-12T02:00:12.501Z,99131.25
2022-09-12T02:03:24.306Z,99135.22
2022-09-12T02:06:32.407Z,99135.50
2022-09-12T02:09:39.092Z,99123.84
2022-09-12T02:12:47.779Z,99130.94
2022-09-12T02:15:54.620Z,99120.22
2022-09-12T02:19:05.715Z,99124.06
2022-09-12T02:22:13.884Z,99121.34
2022-09-12T02:25:20.798Z,99123.06
2022-09-12T02:28:29.346Z,99123.72
2022-09-12T02:31:40.471Z,99120.66
2022-09-12T02:34:49.534Z,99122.66
2022-09-12T02:38:01.017Z,99127.09
2022-09-12T02:41:04.314Z,99130.50
2022-09-12T02:44:07.902Z,99136.41
2022-09-12T02:47:16.409Z,99136.16
2022-09-12T02:50:21.437Z,99133.97
2022-09-12T02:53:24.836Z,99132.19
2022-09-12T02:56:32.124Z,99119.47
2022-09-12T02:59:35.420Z,99114.03
2022-09-12T03:03:00.040Z,99109.41
2022-09-12T03:06:11.335Z,99115.16
2022-09-12T03:09:21.523Z,99116.91
2022-09-12T03:12:40.987Z,99109.41
2022-09-12T03:15:54.860Z,99112.06
2022-09-12T03:19:08.075Z,99116.63
2022-09-12T03:22:20.185Z,99122.22
2022-09-12T03:25:29.837Z,99121.88
2022-09-12T03:28:35.896Z,99128.50
2022-09-12T03:31:39.507Z,99129.78
2022-09-12T03:34:42.801Z,99121.66
2022-09-12T03:37:48.309Z,99129.00
2022-09-12T03:40:54.891Z,99132.50
2022-09-12T03:43:58.381Z,99131.06
2022-09-12T03:47:01.616Z,99128.22
2022-09-12T03:50:06.559Z,99135.28
2022-09-12T03:53:14.081Z,99135.00
2022-09-12T03:56:20.365Z,99132.34
2022-09-12T03:59:23.687Z,99129.03
2022-09-12T04:02:26.929Z,99132.97
2022-09-12T04:05:30.321Z,99132.72
2022-09-12T04:08:35.271Z,99134.06
2022-09-12T04:11:38.544Z,99134.09
2022-09-12T04:14:42.326Z,99144.69
2022-09-12T04:17:45.584Z,99141.78
2022-09-12T04:20:56.651Z,99141.31
2022-09-12T04:23:59.870Z,99157.94
2022-09-12T04:27:07.632Z,99154.16
2022-09-12T04:30:12.016Z,99161.16
2022-09-12T04:33:15.547Z,99163.00
2022-09-12T04:36:20.392Z,99165.31
2022-09-12T04:39:23.644Z,99160.00
2022-09-12T04:42:26.880Z,99163.56
2022-09-12T04:45:30.144Z,99166.66
2022-09-12T04:48:33.468Z,99166.28
2022-09-12T04:51:40.897Z,99180.22
2022-09-12T04:54:44.115Z,99183.19
2022-09-12T04:57:47.383Z,99179.44
2022-09-12T05:00:50.534Z,99182.09
2022-09-12T05:03:53.796Z,99186.13
2022-09-12T05:06:58.744Z,99186.97
2022-09-12T05:10:03.118Z,99189.53
2022-09-12T05:13:06.290Z,99203.94
2022-09-12T05:16:12.740Z,99197.94
2022-09-12T05:19:15.946Z,99204.41
2022-09-12T05:22:20.688Z,99208.56
2022-09-12T05:25:23.884Z,99205.75
2022-09-12T05:28:31.335Z,99212.25
2022-09-12T05:31:34.804Z,99215.19
2022-09-12T05:34:38.723Z,99221.31
2022-09-12T05:37:44.212Z,99221.00
2022-09-12T05:40:48.336Z,99221.41
2022-09-12T05:43:55.550Z,99215.88
2022-09-12T05:46:58.800Z,99222.84
2022-09-12T05:50:02.012Z,99225.16
2022-09-12T05:53:06.548Z,99224.69
2022-09-12T05:56:11.303Z,99225.72
2022-09-12T05:59:16.406Z,99218.75
2022-09-12T06:02:19.681Z,99218.69
2022-09-12T06:05:22.974Z,99219.72
2022-09-12T06:08:27.609Z,99216.50
2022-09-12T06:11:33.385Z,99219.31
2022-09-12T06:14:36.627Z,99206.75
2022-09-12T06:17:39.926Z,99201.19
2022-09-12T06:20:44.031Z,99208.38
2022-09-12T06:23:50.197Z,99206.03
2022-09-12T06:26:54.273Z,99209.09
2022-09-12T06:29:58.523Z,99209.53
2022-09-12T06:33:03.006Z,99200.06
2022-09-12T06:36:12.206Z,99198.78
2022-09-12T06:39:20.094Z,99203.56
2022-09-12T06:42:24.872Z,99195.81
2022-09-12T06:45:34.535Z,99189.19
2022-09-12T06:48:41.918Z,99200.31
2022-09-12T06:51:46.506Z,99199.72
2022-09-12T06:54:51.853Z,99195.81
2022-09-12T06:57:56.089Z,99192.66
2022-09-12T07:01:03.823Z,99202.44
2022-09-12T07:04:07.889Z,99187.25
2022-09-12T07:07:11.360Z,99199.31
2022-09-12T07:10:21.639Z,99192.84
2022-09-12T07:13:25.534Z,99199.19
2022-09-12T07:16:29.187Z,99195.59
2022-09-12T07:19:32.605Z,99196.72
2022-09-12T07:22:35.828Z,99198.22
2022-09-12T07:25:41.779Z,99198.84
2022-09-12T07:28:46.910Z,99187.78
2022-09-12T07:31:50.292Z,99196.41
2022-09-12T07:34:53.611Z,99193.97
2022-09-12T07:37:56.784Z,99196.81
2022-09-12T07:41:01.946Z,99196.78
2022-09-12T07:44:06.741Z,99191.69
2022-09-12T07:47:10.036Z,99200.06
2022-09-12T07:50:13.256Z,99191.75
2022-09-12T07:53:16.435Z,99188.50
2022-09-12T07:56:26.135Z,99194.94
2022-09-12T07:59:51.266Z,99189.91
2022-09-12T08:02:56.694Z,99188.44
2022-09-12T08:06:05.046Z,99187.31
2022-09-12T08:09:08.956Z,99184.28
2022-09-12T08:12:13.525Z,99188.25
2022-09-12T08:15:17.716Z,99191.19
2022-09-12T08:18:20.960Z,99182.19
2022-09-12T08:21:25.409Z,99189.81
2022-09-12T08:24:28.608Z,99188.56
2022-09-12T08:27:33.194Z,99195.47
2022-09-12T08:30:36.444Z,99188.06
2022-09-12T08:33:39.936Z,99188.09
2022-09-12T08:36:43.317Z,99177.53
2022-09-12T08:39:46.852Z,99173.91
2022-09-12T08:42:58.922Z,99176.81
2022-09-12T08:46:10.781Z,99166.47
2022-09-12T08:49:19.198Z,99166.19
2022-09-12T08:52:28.915Z,99159.38
2022-09-12T08:55:35.417Z,99149.59
2022-09-12T08:58:42.222Z,99151.44
2022-09-12T09:01:46.775Z,99154.19
2022-09-12T09:04:53.912Z,99156.38
2022-09-12T09:08:24.010Z,99142.31
2022-09-12T09:11:38.727Z,99144.47
2022-09-12T09:14:57.739Z,99148.72
2022-09-12T09:18:06.521Z,99142.31
2022-09-12T09:21:21.349Z,99138.28
2022-09-12T09:24:29.184Z,99138.31
2022-09-12T09:27:41.000Z,99133.22
2022-09-12T09:30:46.563Z,99138.28
2022-09-12T09:33:52.050Z,99144.03
2022-09-12T09:37:03.926Z,99132.91
2022-09-12T09:40:18.706Z,99124.13
2022-09-12T09:43:24.141Z,99126.00
2022-09-12T09:46:29.273Z,99131.03
2022-09-12T09:49:35.651Z,99124.09
2022-09-12T09:52:39.671Z,99130.28
2022-09-12T09:55:44.599Z,99127.25
2022-09-12T09:58:47.989Z,99125.25
2022-09-12T10:01:55.101Z,99135.31
2022-09-12T10:04:59.890Z,99121.81
2022-09-12T10:08:11.561Z,99132.94
2022-09-12T10:11:22.390Z,99128.88
2022-09-12T10:14:31.817Z,99120.84
2022-09-12T10:17:45.496Z,99125.66
2022-09-12T10:20:48.790Z,99121.97
2022-09-12T10:24:00.483Z,99114.28
2022-09-12T10:27:16.211Z,99109.81
2022-09-12T10:30:21.964Z,99114.13
2022-09-12T10:33:27.810Z,99107.22
2022-09-12T10:36:38.588Z,99105.34
2022-09-12T10:39:42.722Z,99110.22
2022-09-12T10:42:51.428Z,99114.41
2022-09-12T10:45:58.811Z,99113.91
2022-09-12T10:49:22.874Z,99112.59
2022-09-12T10:52:27.449Z,99101.06
2022-09-12T10:55:36.233Z,99115.69
2022-09-12T10:59:04.235Z,99096.47
2022-09-12T11:02:20.272Z,99106.84
2022-09-12T11:05:39.155Z,99098.84
2022-09-12T11:09:07.466Z,99107.84
2022-09-12T11:12:19.280Z,99113.22
2022-09-12T11:15:41.596Z,99106.41
2022-09-12T11:19:05.205Z,99100.88
2022-09-12T11:22:29.905Z,99096.13
2022-09-12T11:25:46.543Z,99102.63
2022-09-12T11:29:02.541Z,99106.16
2022-09-12T11:32:24.701Z,99094.88
2022-09-12T11:35:29.970Z,99091.91
2022-09-12T11:38:52.211Z,99091.91
2022-09-12T11:41:59.534Z,99079.53
2022-09-12T11:45:11.492Z,99088.88
2022-09-12T11:48:29.799Z,99083.88
2022-09-12T11:51:38.382Z,99091.66
2022-09-12T11:54:52.848Z,99084.13
2022-09-12T11:57:59.099Z,99083.31
2022-09-12T12:01:12.821Z,99080.81
2022-09-12T12:04:22.175Z,99080.78
2022-09-12T12:07:25.321Z,99075.13
2022-09-12T12:10:37.996Z,99077.69
2022-09-12T12:13:46.780Z,99073.56
2022-09-12T12:16:51.079Z,99068.53
2022-09-12T12:20:04.949Z,99062.41
2022-09-12T12:23:24.441Z,99061.06
2022-09-12T12:29:55.985Z,99048.47
2022-09-12T12:33:01.172Z,99055.19
2022-09-12T12:36:07.292Z,99049.91
2022-09-12T12:39:48.306Z,99052.88
2022-09-12T12:43:00.296Z,99050.50
2022-09-12T12:46:08.437Z,99034.94
2022-09-12T12:49:20.022Z,99051.81
2022-09-12T12:52:24.508Z,99049.13
2022-09-12T12:55:33.324Z,99048.72
2022-09-12T12:58:39.631Z,99054.78
2022-09-12T13:01:54.737Z,99056.47
2022-09-12T13:05:01.171Z,99055.72
2022-09-12T13:08:11.316Z,99060.78
2022-09-12T13:11:18.747Z,99055.66
2022-09-12T13:14:50.124Z,99063.13
2022-09-12T13:17:55.048Z,99055.28
2022-09-12T13:21:10.085Z,99052.13
2022-09-12T13:24:18.629Z,99046.78
2022-09-12T13:27:23.626Z,99042.44
2022-09-12T13:30:28.573Z,99048.75
2022-09-12T13:33:38.428Z,99036.13
2022-09-12T13:37:06.720Z,99050.03
2022-09-12T13:40:27.160Z,99035.00
2022-09-12T13:43:39.110Z,99045.50
2022-09-12T13:46:42.986Z,99050.59
2022-09-12T13:49:48.054Z,99046.28
2022-09-12T13:52:54.390Z,99055.66
2022-09-12T13:56:00.548Z,99046.50
2022-09-12T13:59:04.360Z,99047.59
2022-09-12T14:02:19.896Z,99053.25
2022-09-12T14:05:26.429Z,99051.66
2022-09-12T14:08:30.348Z,99047.41
2022-09-12T14:11:34.976Z,99037.22
2022-09-12T14:14:42.236Z,99043.91
2022-09-12T14:17:52.302Z,99040.13
2022-09-12T14:21:00.947Z,99043.63
2022-09-12T14:24:08.663Z,99048.22
2022-09-12T14:27:13.164Z,99041.25
2022-09-12T14:30:24.425Z,99043.03
2022-09-12T14:33:27.782Z,99047.28
2022-09-12T14:36:36.685Z,99054.22
2022-09-12T14:39:44.345Z,99054.22
2022-09-12T14:42:51.247Z,99066.97
2022-09-12T14:45:57.443Z,99058.66
2022-09-12T14:49:08.135Z,99058.28
2022-09-12T14:52:28.861Z,99060.41
2022-09-12T14:55:33.780Z,99064.78
2022-09-12T14:58:38.103Z,99068.78
2022-09-12T15:01:41.304Z,99066.72
2022-09-12T15:04:47.491Z,99065.97
2022-09-12T15:07:58.176Z,99069.81
2022-09-12T15:11:01.687Z,99073.53
2022-09-12T15:14:08.390Z,99076.66
2022-09-12T15:17:11.638Z,99084.78
2022-09-12T15:20:15.792Z,99079.56
2022-09-12T15:23:36.037Z,99083.44
2022-09-12T15:26:39.329Z,99080.31
2022-09-12T15:29:42.797Z,99080.25
2022-09-12T15:32:46.851Z,99088.72
2022-09-12T15:35:50.604Z,99088.16
2022-09-12T15:38:55.293Z,99086.91
2022-09-12T15:41:58.983Z,99084.19
2022-09-12T15:45:02.921Z,99088.88
2022-09-12T15:48:06.384Z,99091.38
2022-09-12T15:51:15.429Z,99091.44
2022-09-12T15:54:22.377Z,99100.00
2022-09-12T15:57:25.847Z,99090.16
2022-09-12T16:00:29.058Z,99095.88
2022-09-12T16:03:33.160Z,99099.69
2022-09-12T16:06:37.535Z,99096.25
2022-09-12T16:09:42.333Z,99099.78
2022-09-12T16:12:46.913Z,99100.78
2022-09-12T16:15:50.178Z,99109.69
2022-09-12T16:18:53.512Z,99111.63
2022-09-12T16:21:56.703Z,99105.72
2022-09-12T16:25:01.307Z,99105.38
2022-09-12T16:28:05.832Z,99105.00
2022-09-12T16:31:11.760Z,99107.81
2022-09-12T16:34:15.245Z,99113.16
2022-09-12T16:37:18.520Z,99112.66
2022-09-12T16:40:23.625Z,99109.13
2022-09-12T16:43:27.724Z,99111.00
2022-09-12T16:46:31.122Z,99113.19
2022-09-12T16:49:34.705Z,99119.59
2022-09-12T16:52:37.929Z,99115.06
2022-09-12T16:55:49.871Z,99118.28
2022-09-12T16:58:53.283Z,99122.97
2022-09-12T17:01:56.527Z,99133.94
2022-09-12T17:04:59.804Z,99120.28
2022-09-12T17:08:03.456Z,99127.41
2022-09-12T17:11:10.247Z,99134.59
2022-09-12T17:14:13.583Z,99131.91
2022-09-12T17:17:16.794Z,99133.84
2022-09-12T17:20:20.028Z,99141.28
2022-09-12T17:23:23.705Z,99145.25
2022-09-12T17:26:29.200Z,99151.75
2022-09-12T17:29:32.389Z,99152.09
2022-09-12T17:32:35.632Z,99157.53
2022-09-12T17:35:42.542Z,99166.16
2022-09-12T17:38:47.840Z,99159.72
2022-09-12T17:41:54.650Z,99164.63
2022-09-12T17:44:58.542Z,99154.34
2022-09-12T17:48:02.110Z,99158.56
2022-09-12T17:51:09.389Z,99158.91
2022-09-12T17:54:14.135Z,99165.59
2022-09-12T17:57:18.761Z,99159.31
2022-09-12T18:00:42.621Z,99163.88
2022-09-12T18:03:46.074Z,99178.78
2022-09-12T18:06:49.877Z,99170.09
2022-09-12T18:09:53.591Z,99167.53
2022-09-12T18:12:58.873Z,99177.16
2022-09-12T18:16:05.291Z,99178.44
2022-09-12T18:19:08.559Z,99183.19
2022-09-12T18:22:11.811Z,99193.38
2022-09-12T18:25:15.157Z,99187.34
2022-09-12T18:28:19.866Z,99199.50
2022-09-12T18:31:25.519Z,99199.56
2022-09-12T18:34:29.055Z,99199.50
2022-09-12T18:37:33.139Z,99196.44
2022-09-12T18:40:36.702Z,99191.69
2022-09-12T18:43:41.734Z,99197.88
2022-09-12T18:46:45.863Z,99189.94
2022-09-12T18:49:49.423Z,99195.91
2022-09-12T18:52:59.022Z,99193.13
2022-09-12T18:56:04.568Z,99185.13
2022-09-12T18:59:09.238Z,99191.09
2022-09-12T19:02:16.910Z,99193.47
2022-09-12T19:05:20.089Z,99195.88
2022-09-12T19:08:23.700Z,99198.97
2022-09-12T19:11:28.243Z,99202.34
2022-09-12T19:14:32.955Z,99204.00
2022-09-12T19:17:36.153Z,99202.31
2022-09-12T19:20:39.523Z,99205.22
2022-09-12T19:23:42.942Z,99194.81
2022-09-12T19:26:46.307Z,99197.56
2022-09-12T19:29:50.953Z,99208.78
2022-09-12T19:32:54.136Z,99199.19
2022-09-12T19:35:57.317Z,99196.47
2022-09-12T19:39:01.202Z,99200.41
2022-09-12T19:42:04.414Z,99207.16
2022-09-12T19:45:16.471Z,99206.47
2022-09-12T19:48:20.170Z,99205.56
2022-09-12T19:51:24.485Z,99204.19
2022-09-12T19:54:27.632Z,99206.72
2022-09-12T19:57:31.167Z,99207.72
2022-09-12T20:00:37.048Z,99211.47
2022-09-12T20:03:41.044Z,99209.00
2022-09-12T20:06:44.906Z,99212.03
2022-09-12T20:09:49.085Z,99207.84
2022-09-12T20:12:53.652Z,99210.50
2022-09-12T20:16:06.838Z,99216.13
2022-09-12T20:19:12.283Z,99209.50
2022-09-12T20:22:16.762Z,99213.41
2022-09-12T20:25:21.181Z,99212.06
2022-09-12T20:28:24.503Z,99211.69
2022-09-12T20:31:30.590Z,99215.41
2022-09-12T20:34:40.111Z,99219.25
2022-09-12T20:37:43.725Z,99231.31
2022-09-12T20:40:49.980Z,99231.75
2022-09-12T20:43:55.153Z,99233.03
2022-09-12T20:47:00.709Z,99236.50
2022-09-12T20:50:04.776Z,99232.50
2022-09-12T20:53:09.079Z,99233.25
2022-09-12T20:56:12.590Z,99231.94
2022-09-12T20:59:15.763Z,99231.84
2022-09-12T21:02:20.467Z,99234.50
2022-09-12T21:05:24.299Z,99228.75
2022-09-12T21:08:28.548Z,99230.38
2022-09-12T21:11:31.997Z,99229.22
2022-09-12T21:14:35.165Z,99231.09
2022-09-12T21:17:40.078Z,99235.44
2022-09-12T21:20:43.989Z,99230.41
2022-09-12T21:23:48.120Z,99226.44
2022-09-12T21:26:51.388Z,99232.16
2022-09-12T21:29:56.647Z,99231.09
2022-09-12T21:33:02.323Z,99223.06
2022-09-12T21:36:07.933Z,99228.47
2022-09-12T21:39:11.554Z,99234.97
2022-09-12T21:42:14.697Z,99236.38
2022-09-12T21:45:18.599Z,99231.09
2022-09-12T21:48:23.273Z,99237.91
2022-09-12T21:51:26.587Z,99235.63
2022-09-12T21:54:29.873Z,99231.53
2022-09-12T21:57:33.444Z,99230.69
2022-09-12T22:00:36.947Z,99236.00
2022-09-12T22:03:43.117Z,99235.13
2022-09-12T22:06:46.415Z,99229.41
2022-09-12T22:09:49.649Z,99228.47
2022-09-12T22:12:52.847Z,99225.59
2022-09-12T22:15:56.244Z,99225.41
2022-09-12T22:19:00.850Z,99228.09
2022-09-12T22:22:21.719Z,99228.75
2022-09-12T22:25:26.010Z,99232.41
2022-09-12T22:28:31.919Z,99232.50
2022-09-12T22:31:35.139Z,99238.78
2022-09-12T22:34:39.792Z,99232.16
2022-09-12T22:37:43.506Z,99227.09
2022-09-12T22:40:46.662Z,99226.28
2022-09-12T22:43:50.243Z,99221.13
2022-09-12T22:46:53.429Z,99215.59
2022-09-12T22:49:58.175Z,99219.22
2022-09-12T22:53:01.423Z,99208.78
2022-09-12T22:56:06.643Z,99216.25
2022-09-12T22:59:10.554Z,99211.47
2022-09-12T23:02:13.750Z,99204.94
2022-09-12T23:05:18.391Z,99208.34
2022-09-12T23:08:21.585Z,99205.38
2022-09-12T23:11:25.116Z,99211.22
2022-09-12T23:14:28.339Z,99202.94
2022-09-12T23:17:31.636Z,99212.81
2022-09-12T23:20:36.264Z,99205.00
2022-09-12T23:23:39.687Z,99201.13
2022-09-12T23:26:42.977Z,99203.19
2022-09-12T23:29:46.129Z,99208.03
2022-09-12T23:32:49.978Z,99197.09
2022-09-12T23:35:54.633Z,99199.69
2022-09-12T23:38:58.307Z,99200.94
2022-09-12T23:42:01.545Z,99196.91
2022-09-12T23:45:05.358Z,99197.00
2022-09-12T23:48:09.019Z,99195.06
2022-09-12T23:51:14.067Z,99204.59
2022-09-12T23:54:17.533Z,99201.44
2022-09-12T23:57:20.736Z,99194.13
